createdAt,value
2018-06-25T00:00:34.951Z,1008.70
2018-06-25T00:01:34.987Z,1008.70
2018-06-25T00:02:35.009Z,1008.73
2018-06-25T00:03:35.032Z,1008.73
2018-06-25T00:04:35.048Z,1008.74
2018-06-25T00:05:35.103Z,1008.71
2018-06-25T00:06:35.103Z,1008.74
2018-06-25T00:07:35.130Z,1008.71
2018-06-25T00:08:35.150Z,1008.74
2018-06-25T00:09:35.175Z,1008.71
2018-06-25T00:10:35.196Z,1008.74
2018-06-25T00:11:35.230Z,1008.75
2018-06-25T00:12:35.248Z,1008.75
2018-06-25T00:13:35.268Z,1008.71
2018-06-25T00:14:35.292Z,1008.73
2018-06-25T00:15:35.318Z,1008.70
2018-06-25T00:16:35.341Z,1008.75
2018-06-25T00:17:35.371Z,1008.75
2018-06-25T00:18:35.380Z,1008.77
2018-06-25T00:19:35.414Z,1008.77
2018-06-25T00:20:35.439Z,1008.77
2018-06-25T00:21:35.460Z,1008.76
2018-06-25T00:22:35.489Z,1008.77
2018-06-25T00:23:35.512Z,1008.77
2018-06-25T00:24:35.530Z,1008.76
2018-06-25T00:25:35.559Z,1008.76
2018-06-25T00:26:35.591Z,1008.74
2018-06-25T00:27:35.605Z,1008.79
2018-06-25T00:28:35.625Z,1008.76
2018-06-25T00:29:35.650Z,1008.75
2018-06-25T00:30:35.702Z,1008.74
2018-06-25T00:31:35.706Z,1008.77
2018-06-25T00:32:35.726Z,1008.76
2018-06-25T00:33:35.744Z,1008.76
2018-06-25T00:34:35.768Z,1008.76
2018-06-25T00:35:35.793Z,1008.75
2018-06-25T00:36:35.845Z,1008.72
2018-06-25T00:37:35.846Z,1008.73
2018-06-25T00:38:35.864Z,1008.72
2018-06-25T00:39:35.888Z,1008.71
2018-06-25T00:40:35.911Z,1008.66
2018-06-25T00:41:35.942Z,1008.67
2018-06-25T00:42:36.053Z,1008.67
2018-06-25T00:43:35.983Z,1008.71
2018-06-25T00:44:36.011Z,1008.73
2018-06-25T00:45:36.032Z,1008.74
2018-06-25T00:46:36.055Z,1008.73
2018-06-25T00:47:36.085Z,1008.75
2018-06-25T00:48:36.096Z,1008.70
2018-06-25T00:49:36.128Z,1008.72
2018-06-25T00:50:36.148Z,1008.69
2018-06-25T00:51:36.172Z,1008.66
2018-06-25T00:52:36.194Z,1008.69
2018-06-25T00:53:36.221Z,1008.68
2018-06-25T00:54:36.238Z,1008.66
2018-06-25T00:55:36.342Z,1008.66
2018-06-25T00:56:36.291Z,1008.66
2018-06-25T00:57:36.317Z,1008.68
2018-06-25T00:58:36.344Z,1008.64
2018-06-25T00:59:36.362Z,1008.70
2018-06-25T01:00:36.382Z,1008.65
2018-06-25T01:01:36.408Z,1008.65
2018-06-25T01:02:36.439Z,1008.64
2018-06-25T01:03:36.454Z,1008.64
2018-06-25T01:04:36.483Z,1008.63
2018-06-25T01:05:36.512Z,1008.67
2018-06-25T01:06:36.522Z,1008.60
2018-06-25T01:07:36.555Z,1008.62
2018-06-25T01:08:36.574Z,1008.65
2018-06-25T01:09:36.604Z,1008.63
2018-06-25T01:10:36.618Z,1008.66
2018-06-25T01:11:36.643Z,1008.67
2018-06-25T01:12:36.668Z,1008.67
2018-06-25T01:13:36.692Z,1008.64
2018-06-25T01:14:36.717Z,1008.67
2018-06-25T01:15:36.739Z,1008.64
2018-06-25T01:16:36.772Z,1008.66
2018-06-25T01:17:36.788Z,1008.64
2018-06-25T01:18:36.807Z,1008.63
2018-06-25T01:19:36.834Z,1008.64
2018-06-25T01:20:36.852Z,1008.69
2018-06-25T01:21:36.876Z,1008.68
2018-06-25T01:22:36.906Z,1008.71
2018-06-25T01:23:36.937Z,1008.73
2018-06-25T01:24:36.945Z,1008.72
2018-06-25T01:25:36.974Z,1008.73
2018-06-25T01:26:37.000Z,1008.72
2018-06-25T01:27:37.020Z,1008.70
2018-06-25T01:28:37.048Z,1008.77
2018-06-25T01:29:37.071Z,1008.71
2018-06-25T01:30:37.090Z,1008.76
2018-06-25T01:31:37.117Z,1008.76
2018-06-25T01:32:37.156Z,1008.75
2018-06-25T01:33:37.162Z,1008.77
2018-06-25T01:34:37.190Z,1008.75
2018-06-25T01:35:37.232Z,1008.74
2018-06-25T01:36:37.235Z,1008.74
2018-06-25T01:37:37.260Z,1008.76
2018-06-25T01:38:37.284Z,1008.70
2018-06-25T01:39:37.306Z,1008.72
2018-06-25T01:40:37.331Z,1008.70
2018-06-25T01:41:37.359Z,1008.72
2018-06-25T01:42:37.377Z,1008.71
2018-06-25T01:43:37.398Z,1008.70
2018-06-25T01:44:37.428Z,1008.70
2018-06-25T01:45:37.451Z,1008.67
2018-06-25T01:46:37.473Z,1008.71
2018-06-25T01:47:37.495Z,1008.70
2018-06-25T01:48:37.517Z,1008.72
2018-06-25T01:49:37.546Z,1008.71
2018-06-25T01:50:37.565Z,1008.71
2018-06-25T01:51:37.589Z,1008.70
2018-06-25T01:52:37.615Z,1008.68
2018-06-25T01:53:37.635Z,1008.71
2018-06-25T01:54:37.654Z,1008.70
2018-06-25T01:55:37.681Z,1008.72
2018-06-25T01:56:37.708Z,1008.73
2018-06-25T01:57:37.765Z,1008.72
2018-06-25T01:58:37.752Z,1008.75
2018-06-25T01:59:37.777Z,1008.69
2018-06-25T02:00:37.804Z,1008.70
2018-06-25T02:01:37.827Z,1008.67
2018-06-25T02:02:37.848Z,1008.67
2018-06-25T02:03:37.872Z,1008.68
2018-06-25T02:04:37.900Z,1008.68
2018-06-25T02:05:37.919Z,1008.65
2018-06-25T02:06:37.949Z,1008.63
2018-06-25T02:07:37.966Z,1008.65
2018-06-25T02:08:37.989Z,1008.63
2018-06-25T02:09:38.014Z,1008.67
2018-06-25T02:10:38.039Z,1008.64
2018-06-25T02:11:38.062Z,1008.63
2018-06-25T02:12:38.081Z,1008.66
2018-06-25T02:13:38.110Z,1008.62
2018-06-25T02:14:38.129Z,1008.63
2018-06-25T02:15:38.156Z,1008.66
2018-06-25T02:16:38.177Z,1008.63
2018-06-25T02:17:38.202Z,1008.62
2018-06-25T02:18:38.227Z,1008.61
2018-06-25T02:19:38.249Z,1008.61
2018-06-25T02:20:38.274Z,1008.65
2018-06-25T02:21:38.303Z,1008.66
2018-06-25T02:22:38.364Z,1008.65
2018-06-25T02:23:38.345Z,1008.63
2018-06-25T02:24:38.374Z,1008.68
2018-06-25T02:25:38.390Z,1008.66
2018-06-25T02:26:38.411Z,1008.63
2018-06-25T02:27:38.449Z,1008.67
2018-06-25T02:28:38.487Z,1008.65
2018-06-25T02:29:38.506Z,1008.68
2018-06-25T02:30:38.509Z,1008.67
2018-06-25T02:31:38.531Z,1008.61
2018-06-25T02:32:38.553Z,1008.62
2018-06-25T02:33:38.579Z,1008.62
2018-06-25T02:34:38.603Z,1008.63
2018-06-25T02:35:38.628Z,1008.63
2018-06-25T02:36:38.643Z,1008.62
2018-06-25T02:37:38.675Z,1008.62
2018-06-25T02:38:38.762Z,1008.64
2018-06-25T02:39:38.720Z,1008.63
2018-06-25T02:40:38.744Z,1008.63
2018-06-25T02:41:38.765Z,1008.57
2018-06-25T02:42:38.792Z,1008.63
2018-06-25T02:43:38.813Z,1008.62
2018-06-25T02:44:38.838Z,1008.65
2018-06-25T02:45:38.863Z,1008.63
2018-06-25T02:46:38.882Z,1008.63
2018-06-25T02:47:38.905Z,1008.64
2018-06-25T02:48:38.939Z,1008.64
2018-06-25T02:49:38.969Z,1008.62
2018-06-25T02:50:38.986Z,1008.64
2018-06-25T02:51:39.003Z,1008.62
2018-06-25T02:52:39.024Z,1008.62
2018-06-25T02:53:39.052Z,1008.62
2018-06-25T02:54:39.073Z,1008.64
2018-06-25T02:55:39.089Z,1008.60
2018-06-25T02:56:39.121Z,1008.60
2018-06-25T02:57:39.137Z,1008.60
2018-06-25T02:58:39.163Z,1008.62
2018-06-25T02:59:39.193Z,1008.62
2018-06-25T03:00:39.211Z,1008.64
2018-06-25T03:01:39.238Z,1008.65
2018-06-25T03:02:39.258Z,1008.69
2018-06-25T03:03:39.283Z,1008.71
2018-06-25T03:04:39.306Z,1008.68
2018-06-25T03:05:39.325Z,1008.68
2018-06-25T03:06:39.350Z,1008.69
2018-06-25T03:07:39.380Z,1008.69
2018-06-25T03:08:39.404Z,1008.68
2018-06-25T03:09:39.421Z,1008.69
2018-06-25T03:10:39.444Z,1008.69
2018-06-25T03:11:39.474Z,1008.71
2018-06-25T03:12:39.488Z,1008.70
2018-06-25T03:13:39.522Z,1008.71
2018-06-25T03:14:39.542Z,1008.72
2018-06-25T03:15:39.556Z,1008.73
2018-06-25T03:16:39.585Z,1008.74
2018-06-25T03:17:39.609Z,1008.75
2018-06-25T03:18:39.634Z,1008.77
2018-06-25T03:19:39.656Z,1008.80
2018-06-25T03:20:39.686Z,1008.77
2018-06-25T03:21:39.706Z,1008.80
2018-06-25T03:22:39.723Z,1008.81
2018-06-25T03:23:39.759Z,1008.85
2018-06-25T03:24:39.770Z,1008.80
2018-06-25T03:25:39.793Z,1008.82
2018-06-25T03:26:39.815Z,1008.81
2018-06-25T03:27:39.840Z,1008.79
2018-06-25T03:28:39.864Z,1008.81
2018-06-25T03:29:39.885Z,1008.77
2018-06-25T03:30:39.909Z,1008.80
2018-06-25T03:31:39.938Z,1008.80
2018-06-25T03:32:39.958Z,1008.80
2018-06-25T03:33:39.984Z,1008.82
2018-06-25T03:34:40.006Z,1008.84
2018-06-25T03:35:40.030Z,1008.84
2018-06-25T03:36:40.053Z,1008.80
2018-06-25T03:37:40.074Z,1008.82
2018-06-25T03:38:40.101Z,1008.85
2018-06-25T03:39:40.121Z,1008.83
2018-06-25T03:40:40.143Z,1008.87
2018-06-25T03:41:40.168Z,1008.85
2018-06-25T03:42:40.187Z,1008.90
2018-06-25T03:43:40.215Z,1008.90
2018-06-25T03:44:40.238Z,1008.88
2018-06-25T03:45:40.262Z,1008.90
2018-06-25T03:46:40.284Z,1008.94
2018-06-25T03:47:40.310Z,1008.90
2018-06-25T03:48:40.327Z,1008.91
2018-06-25T03:49:40.353Z,1008.95
2018-06-25T03:50:40.376Z,1008.94
2018-06-25T03:51:40.400Z,1008.95
2018-06-25T03:52:40.425Z,1008.94
2018-06-25T03:53:40.444Z,1008.96
2018-06-25T03:54:40.476Z,1008.93
2018-06-25T03:55:40.489Z,1008.98
2018-06-25T03:56:40.516Z,1008.91
2018-06-25T03:57:40.540Z,1008.94
2018-06-25T03:58:40.566Z,1009.01
2018-06-25T03:59:40.589Z,1008.97
2018-06-25T04:00:40.606Z,1008.98
2018-06-25T04:01:40.640Z,1009.02
2018-06-25T04:02:40.651Z,1009.01
2018-06-25T04:03:40.686Z,1009.01
2018-06-25T04:04:40.697Z,1009.00
2018-06-25T04:05:40.730Z,1009.01
2018-06-25T04:06:40.746Z,1009.05
2018-06-25T04:07:40.772Z,1009.02
2018-06-25T04:08:40.795Z,1009.07
2018-06-25T04:09:40.824Z,1009.04
2018-06-25T04:10:40.856Z,1009.07
2018-06-25T04:11:40.865Z,1009.06
2018-06-25T04:12:40.891Z,1009.10
2018-06-25T04:13:40.911Z,1009.14
2018-06-25T04:14:40.932Z,1009.09
2018-06-25T04:15:40.957Z,1009.12
2018-06-25T04:16:40.982Z,1009.10
2018-06-25T04:17:41.007Z,1009.15
2018-06-25T04:18:41.024Z,1009.12
2018-06-25T04:19:41.051Z,1009.20
2018-06-25T04:20:41.124Z,1009.23
2018-06-25T04:21:41.095Z,1009.23
2018-06-25T04:22:41.117Z,1009.22
2018-06-25T04:23:41.143Z,1009.24
2018-06-25T04:24:41.173Z,1009.25
2018-06-25T04:25:41.183Z,1009.24
2018-06-25T04:26:41.207Z,1009.22
2018-06-25T04:27:41.235Z,1009.25
2018-06-25T04:28:41.260Z,1009.30
2018-06-25T04:29:41.279Z,1009.31
2018-06-25T04:30:41.308Z,1009.31
2018-06-25T04:31:41.324Z,1009.29
2018-06-25T04:32:41.356Z,1009.31
2018-06-25T04:33:41.380Z,1009.31
2018-06-25T04:34:41.400Z,1009.35
2018-06-25T04:35:41.428Z,1009.38
2018-06-25T04:36:41.445Z,1009.38
2018-06-25T04:37:41.470Z,1009.37
2018-06-25T04:38:41.501Z,1009.35
2018-06-25T04:39:41.517Z,1009.36
2018-06-25T04:40:41.538Z,1009.40
2018-06-25T04:41:41.561Z,1009.43
2018-06-25T04:42:41.586Z,1009.40
2018-06-25T04:43:41.610Z,1009.39
2018-06-25T04:44:41.631Z,1009.38
2018-06-25T04:45:41.653Z,1009.37
2018-06-25T04:46:41.676Z,1009.38
2018-06-25T04:47:41.702Z,1009.40
2018-06-25T04:48:41.728Z,1009.41
2018-06-25T04:49:41.745Z,1009.42
2018-06-25T04:50:41.771Z,1009.42
2018-06-25T04:51:41.801Z,1009.43
2018-06-25T04:52:41.818Z,1009.48
2018-06-25T04:53:41.844Z,1009.47
2018-06-25T04:54:41.864Z,1009.47
2018-06-25T04:55:41.885Z,1009.49
2018-06-25T04:56:41.908Z,1009.48
2018-06-25T04:57:41.936Z,1009.46
2018-06-25T04:58:41.957Z,1009.49
2018-06-25T04:59:41.975Z,1009.41
2018-06-25T05:00:42.005Z,1009.46
2018-06-25T05:01:42.027Z,1009.48
2018-06-25T05:02:42.053Z,1009.44
2018-06-25T05:03:42.117Z,1009.47
2018-06-25T05:04:42.098Z,1009.44
2018-06-25T05:05:42.114Z,1009.45
2018-06-25T05:06:42.154Z,1009.47
2018-06-25T05:07:42.166Z,1009.46
2018-06-25T05:08:42.237Z,1009.46
2018-06-25T05:09:42.216Z,1009.48
2018-06-25T05:10:42.237Z,1009.49
2018-06-25T05:11:42.262Z,1009.48
2018-06-25T05:12:42.287Z,1009.47
2018-06-25T05:13:42.311Z,1009.55
2018-06-25T05:14:42.331Z,1009.50
2018-06-25T05:15:42.360Z,1009.49
2018-06-25T05:16:42.374Z,1009.51
2018-06-25T05:17:42.399Z,1009.51
2018-06-25T05:18:42.428Z,1009.55
2018-06-25T05:19:42.453Z,1009.55
2018-06-25T05:20:42.474Z,1009.56
2018-06-25T05:21:42.498Z,1009.58
2018-06-25T05:22:42.520Z,1009.62
2018-06-25T05:23:42.548Z,1009.62
2018-06-25T05:24:42.565Z,1009.62
2018-06-25T05:25:42.589Z,1009.63
2018-06-25T05:26:42.615Z,1009.62
2018-06-25T05:27:42.634Z,1009.61
2018-06-25T05:28:42.657Z,1009.61
2018-06-25T05:29:42.684Z,1009.65
2018-06-25T05:30:42.699Z,1009.62
2018-06-25T05:31:42.730Z,1009.64
2018-06-25T05:32:42.748Z,1009.64
2018-06-25T05:33:42.770Z,1009.64
2018-06-25T05:34:42.800Z,1009.68
2018-06-25T05:35:42.821Z,1009.67
2018-06-25T05:36:42.841Z,1009.67
2018-06-25T05:37:42.866Z,1009.70
2018-06-25T05:38:42.892Z,1009.73
2018-06-25T05:39:42.971Z,1009.71
2018-06-25T05:40:42.972Z,1009.72
2018-06-25T05:41:42.976Z,1009.76
2018-06-25T05:42:42.990Z,1009.73
2018-06-25T05:43:43.011Z,1009.76
2018-06-25T05:44:43.054Z,1009.78
2018-06-25T05:45:43.051Z,1009.79
2018-06-25T05:46:43.080Z,1009.80
2018-06-25T05:47:43.111Z,1009.80
2018-06-25T05:48:43.140Z,1009.82
2018-06-25T05:49:43.147Z,1009.81
2018-06-25T05:50:43.172Z,1009.79
2018-06-25T05:51:43.192Z,1009.86
2018-06-25T05:52:43.216Z,1009.85
2018-06-25T05:53:43.245Z,1009.84
2018-06-25T05:54:43.261Z,1009.87
2018-06-25T05:55:43.284Z,1009.90
2018-06-25T05:56:43.388Z,1009.91
2018-06-25T05:57:43.341Z,1009.89
2018-06-25T05:58:43.357Z,1009.91
2018-06-25T05:59:43.385Z,1009.90
2018-06-25T06:00:43.399Z,1009.89
2018-06-25T06:01:43.433Z,1009.92
2018-06-25T06:02:43.491Z,1009.95
2018-06-25T06:03:43.476Z,1009.94
2018-06-25T06:04:43.516Z,1009.93
2018-06-25T06:05:43.528Z,1009.95
2018-06-25T06:06:43.543Z,1010.00
2018-06-25T06:07:43.571Z,1009.94
2018-06-25T06:08:43.588Z,1010.00
2018-06-25T06:09:43.617Z,1010.00
2018-06-25T06:10:43.648Z,1010.06
2018-06-25T06:11:43.665Z,1010.06
2018-06-25T06:12:43.696Z,1010.07
2018-06-25T06:13:43.712Z,1010.13
2018-06-25T06:14:43.743Z,1010.10
2018-06-25T06:15:43.760Z,1010.10
2018-06-25T06:16:43.784Z,1010.14
2018-06-25T06:17:43.803Z,1010.11
2018-06-25T06:18:43.829Z,1010.13
2018-06-25T06:19:43.848Z,1010.13
2018-06-25T06:20:43.874Z,1010.13
2018-06-25T06:21:43.909Z,1010.12
2018-06-25T06:22:43.922Z,1010.13
2018-06-25T06:23:43.946Z,1010.18
2018-06-25T06:24:43.971Z,1010.13
2018-06-25T06:25:43.996Z,1010.16
2018-06-25T06:26:44.016Z,1010.15
2018-06-25T06:27:44.041Z,1010.15
2018-06-25T06:28:44.073Z,1010.14
2018-06-25T06:29:44.088Z,1010.14
2018-06-25T06:30:44.115Z,1010.15
2018-06-25T06:31:44.136Z,1010.15
2018-06-25T06:32:44.151Z,1010.14
2018-06-25T06:33:44.183Z,1010.17
2018-06-25T06:34:44.202Z,1010.16
2018-06-25T06:35:44.234Z,1010.18
2018-06-25T06:36:44.253Z,1010.20
2018-06-25T06:37:44.271Z,1010.18
2018-06-25T06:38:44.295Z,1010.19
2018-06-25T06:39:44.351Z,1010.22
2018-06-25T06:40:44.346Z,1010.22
2018-06-25T06:41:44.370Z,1010.26
2018-06-25T06:42:44.408Z,1010.28
2018-06-25T06:43:44.419Z,1010.24
2018-06-25T06:44:44.441Z,1010.29
2018-06-25T06:45:44.465Z,1010.31
2018-06-25T06:46:44.488Z,1010.31
2018-06-25T06:47:44.513Z,1010.34
2018-06-25T06:48:44.539Z,1010.30
2018-06-25T06:49:44.559Z,1010.28
2018-06-25T06:50:44.583Z,1010.34
2018-06-25T06:51:44.600Z,1010.32
2018-06-25T06:52:44.636Z,1010.34
2018-06-25T06:53:44.654Z,1010.34
2018-06-25T06:54:44.670Z,1010.40
2018-06-25T06:55:44.698Z,1010.39
2018-06-25T06:56:44.723Z,1010.36
2018-06-25T06:57:44.818Z,1010.35
2018-06-25T06:58:44.769Z,1010.40
2018-06-25T06:59:44.791Z,1010.36
2018-06-25T07:00:44.817Z,1010.41
2018-06-25T07:01:44.840Z,1010.41
2018-06-25T07:02:44.866Z,1010.42
2018-06-25T07:03:44.886Z,1010.45
2018-06-25T07:04:44.960Z,1010.41
2018-06-25T07:05:44.931Z,1010.43
2018-06-25T07:06:44.971Z,1010.42
2018-06-25T07:07:44.982Z,1010.41
2018-06-25T07:08:45.010Z,1010.39
2018-06-25T07:09:45.034Z,1010.43
2018-06-25T07:10:45.047Z,1010.43
2018-06-25T07:11:45.083Z,1010.45
2018-06-25T07:12:45.100Z,1010.42
2018-06-25T07:13:45.124Z,1010.44
2018-06-25T07:14:45.149Z,1010.44
2018-06-25T07:15:45.169Z,1010.43
2018-06-25T07:16:45.195Z,1010.42
2018-06-25T07:17:45.225Z,1010.42
2018-06-25T07:18:45.251Z,1010.42
2018-06-25T07:19:45.265Z,1010.38
2018-06-25T07:20:45.342Z,1010.42
2018-06-25T07:21:45.329Z,1010.39
2018-06-25T07:22:45.329Z,1010.38
2018-06-25T07:23:45.371Z,1010.38
2018-06-25T07:24:45.379Z,1010.38
2018-06-25T07:25:45.412Z,1010.41
2018-06-25T07:26:45.432Z,1010.40
2018-06-25T07:27:45.448Z,1010.42
2018-06-25T07:28:45.528Z,1010.42
2018-06-25T07:29:45.503Z,1010.40
2018-06-25T07:30:45.523Z,1010.42
2018-06-25T07:31:45.548Z,1010.43
2018-06-25T07:32:45.572Z,1010.42
2018-06-25T07:33:45.598Z,1010.40
2018-06-25T07:34:45.614Z,1010.40
2018-06-25T07:35:45.636Z,1010.38
2018-06-25T07:36:45.666Z,1010.37
2018-06-25T07:37:45.690Z,1010.39
2018-06-25T07:38:45.722Z,1010.39
2018-06-25T07:39:45.738Z,1010.38
2018-06-25T07:40:45.759Z,1010.37
2018-06-25T07:41:45.789Z,1010.32
2018-06-25T07:42:45.807Z,1010.33
2018-06-25T07:43:45.832Z,1010.32
2018-06-25T07:44:45.875Z,1010.32
2018-06-25T07:45:45.879Z,1010.32
2018-06-25T07:46:45.900Z,1010.33
2018-06-25T07:47:45.925Z,1010.32
2018-06-25T07:48:45.953Z,1010.31
2018-06-25T07:49:45.975Z,1010.30
2018-06-25T07:50:45.998Z,1010.25
2018-06-25T07:51:46.022Z,1010.33
2018-06-25T07:52:46.041Z,1010.30
2018-06-25T07:53:46.071Z,1010.32
2018-06-25T07:54:46.096Z,1010.33
2018-06-25T07:55:46.118Z,1010.32
2018-06-25T07:56:46.142Z,1010.34
2018-06-25T07:57:46.165Z,1010.28
2018-06-25T07:58:46.190Z,1010.31
2018-06-25T07:59:46.209Z,1010.34
2018-06-25T08:00:46.240Z,1010.35
2018-06-25T08:01:46.264Z,1010.34
2018-06-25T08:02:46.283Z,1010.35
2018-06-25T08:03:46.350Z,1010.33
2018-06-25T08:04:46.331Z,1010.35
2018-06-25T08:05:46.355Z,1010.35
2018-06-25T08:06:46.381Z,1010.34
2018-06-25T08:07:46.403Z,1010.37
2018-06-25T08:08:46.431Z,1010.35
2018-06-25T08:09:46.508Z,1010.35
2018-06-25T08:10:46.474Z,1010.39
2018-06-25T08:11:46.494Z,1010.37
2018-06-25T08:12:46.521Z,1010.41
2018-06-25T08:13:46.552Z,1010.38
2018-06-25T08:14:46.568Z,1010.39
2018-06-25T08:15:46.593Z,1010.44
2018-06-25T08:16:46.678Z,1010.44
2018-06-25T08:17:46.639Z,1010.45
2018-06-25T08:18:46.663Z,1010.44
2018-06-25T08:19:46.690Z,1010.42
2018-06-25T08:20:46.711Z,1010.44
2018-06-25T08:21:46.775Z,1010.45
2018-06-25T08:22:46.760Z,1010.49
2018-06-25T08:23:46.777Z,1010.46
2018-06-25T08:24:46.805Z,1010.46
2018-06-25T08:25:46.831Z,1010.49
2018-06-25T08:26:46.858Z,1010.49
2018-06-25T08:27:46.879Z,1010.46
2018-06-25T08:28:46.912Z,1010.52
2018-06-25T08:29:46.949Z,1010.50
2018-06-25T08:30:46.950Z,1010.53
2018-06-25T08:31:46.976Z,1010.50
2018-06-25T08:32:47.003Z,1010.51
2018-06-25T08:33:47.031Z,1010.52
2018-06-25T08:34:47.051Z,1010.55
2018-06-25T08:35:47.069Z,1010.58
2018-06-25T08:36:47.118Z,1010.59
2018-06-25T08:37:47.115Z,1010.62
2018-06-25T08:38:47.142Z,1010.62
2018-06-25T08:39:47.166Z,1010.56
2018-06-25T08:40:47.204Z,1010.60
2018-06-25T08:41:47.213Z,1010.60
2018-06-25T08:42:47.236Z,1010.62
2018-06-25T08:43:47.262Z,1010.65
2018-06-25T08:44:47.290Z,1010.72
2018-06-25T08:45:47.341Z,1010.70
2018-06-25T08:46:47.337Z,1010.69
2018-06-25T08:47:47.360Z,1010.69
2018-06-25T08:48:47.395Z,1010.71
2018-06-25T08:49:47.402Z,1010.71
2018-06-25T08:50:47.431Z,1010.70
2018-06-25T08:51:47.463Z,1010.77
2018-06-25T08:52:47.477Z,1010.75
2018-06-25T08:53:47.500Z,1010.73
2018-06-25T08:54:47.530Z,1010.75
2018-06-25T08:55:47.552Z,1010.79
2018-06-25T08:56:47.594Z,1010.77
2018-06-25T08:57:47.644Z,1010.81
2018-06-25T08:58:47.620Z,1010.80
2018-06-25T08:59:47.645Z,1010.79
2018-06-25T09:00:47.670Z,1010.81
2018-06-25T09:01:47.691Z,1010.81
2018-06-25T09:02:47.715Z,1010.81
2018-06-25T09:03:47.739Z,1010.82
2018-06-25T09:04:47.764Z,1010.83
2018-06-25T09:05:47.787Z,1010.82
2018-06-25T09:06:47.812Z,1010.86
2018-06-25T09:07:47.834Z,1010.81
2018-06-25T09:08:47.861Z,1010.85
2018-06-25T09:09:47.917Z,1010.88
2018-06-25T09:10:47.913Z,1010.85
2018-06-25T09:11:47.932Z,1010.90
2018-06-25T09:12:47.956Z,1010.84
2018-06-25T09:13:47.978Z,1010.84
2018-06-25T09:14:48.008Z,1010.85
2018-06-25T09:15:48.028Z,1010.86
2018-06-25T09:16:48.052Z,1010.84
2018-06-25T09:17:48.077Z,1010.90
2018-06-25T09:18:48.094Z,1010.85
2018-06-25T09:19:48.123Z,1010.88
2018-06-25T09:20:48.151Z,1010.89
2018-06-25T09:21:48.172Z,1010.88
2018-06-25T09:22:48.203Z,1010.87
2018-06-25T09:23:48.242Z,1010.88
2018-06-25T09:24:48.242Z,1010.89
2018-06-25T09:25:48.269Z,1010.88
2018-06-25T09:26:48.289Z,1010.95
2018-06-25T09:27:48.324Z,1010.90
2018-06-25T09:28:48.339Z,1010.88
2018-06-25T09:29:48.390Z,1010.87
2018-06-25T09:30:48.389Z,1010.89
2018-06-25T09:31:48.411Z,1010.85
2018-06-25T09:32:48.440Z,1010.86
2018-06-25T09:33:48.463Z,1010.93
2018-06-25T09:34:48.484Z,1010.89
2018-06-25T09:35:48.510Z,1010.88
2018-06-25T09:36:48.532Z,1010.90
2018-06-25T09:37:48.569Z,1010.88
2018-06-25T09:38:48.579Z,1010.89
2018-06-25T09:39:48.606Z,1010.86
2018-06-25T09:40:48.643Z,1010.87
2018-06-25T09:41:48.826Z,1010.92
2018-06-25T09:42:48.678Z,1010.90
2018-06-25T09:43:48.712Z,1010.94
2018-06-25T09:44:48.727Z,1010.96
2018-06-25T09:45:48.750Z,1010.94
2018-06-25T09:46:48.826Z,1010.94
2018-06-25T09:47:48.800Z,1010.92
2018-06-25T09:48:48.823Z,1010.95
2018-06-25T09:49:48.849Z,1010.95
2018-06-25T09:50:48.873Z,1010.90
2018-06-25T09:51:48.898Z,1010.88
2018-06-25T09:52:48.920Z,1010.92
2018-06-25T09:53:48.949Z,1010.89
2018-06-25T09:54:49.002Z,1010.88
2018-06-25T09:55:48.995Z,1010.86
2018-06-25T09:56:49.017Z,1010.89
2018-06-25T09:57:49.043Z,1010.87
2018-06-25T09:58:49.069Z,1010.83
2018-06-25T09:59:49.092Z,1010.87
2018-06-25T10:00:49.113Z,1010.84
2018-06-25T10:01:49.138Z,1010.83
2018-06-25T10:02:49.167Z,1010.82
2018-06-25T10:03:49.188Z,1010.84
2018-06-25T10:04:49.213Z,1010.89
2018-06-25T10:05:49.236Z,1010.84
2018-06-25T10:06:49.268Z,1010.85
2018-06-25T10:07:49.293Z,1010.87
2018-06-25T10:08:49.318Z,1010.83
2018-06-25T10:09:49.340Z,1010.81
2018-06-25T10:10:49.357Z,1010.81
2018-06-25T10:11:49.385Z,1010.85
2018-06-25T10:12:49.405Z,1010.79
2018-06-25T10:13:49.440Z,1010.77
2018-06-25T10:14:49.477Z,1010.78
2018-06-25T10:15:49.480Z,1010.81
2018-06-25T10:16:49.503Z,1010.77
2018-06-25T10:17:49.531Z,1010.76
2018-06-25T10:18:49.550Z,1010.79
2018-06-25T10:19:49.579Z,1010.81
2018-06-25T10:20:49.607Z,1010.81
2018-06-25T10:21:49.630Z,1010.82
2018-06-25T10:22:49.648Z,1010.80
2018-06-25T10:23:49.674Z,1010.84
2018-06-25T10:24:49.702Z,1010.76
2018-06-25T10:25:49.721Z,1010.80
2018-06-25T10:26:49.749Z,1010.81
2018-06-25T10:27:49.781Z,1010.81
2018-06-25T10:28:49.799Z,1010.75
2018-06-25T10:29:49.823Z,1010.83
2018-06-25T10:30:49.863Z,1010.83
2018-06-25T10:31:49.872Z,1010.80
2018-06-25T10:32:49.899Z,1010.83
2018-06-25T10:33:49.923Z,1010.84
2018-06-25T10:34:49.998Z,1010.82
2018-06-25T10:35:49.988Z,1010.83
2018-06-25T10:36:49.996Z,1010.80
2018-06-25T10:37:50.043Z,1010.82
2018-06-25T10:38:50.042Z,1010.82
2018-06-25T10:39:50.065Z,1010.80
2018-06-25T10:40:50.093Z,1010.78
2018-06-25T10:41:50.110Z,1010.82
2018-06-25T10:42:50.142Z,1010.78
2018-06-25T10:43:50.170Z,1010.76
2018-06-25T10:44:50.192Z,1010.77
2018-06-25T10:45:50.216Z,1010.74
2018-06-25T10:46:50.243Z,1010.75
2018-06-25T10:47:50.265Z,1010.74
2018-06-25T10:48:50.289Z,1010.76
2018-06-25T10:49:50.319Z,1010.71
2018-06-25T10:50:50.361Z,1010.71
2018-06-25T10:51:50.396Z,1010.71
2018-06-25T10:52:50.390Z,1010.68
2018-06-25T10:53:50.407Z,1010.77
2018-06-25T10:54:50.434Z,1010.78
2018-06-25T10:55:50.465Z,1010.71
2018-06-25T10:56:50.485Z,1010.70
2018-06-25T10:57:50.507Z,1010.71
2018-06-25T10:58:50.539Z,1010.67
2018-06-25T10:59:50.708Z,1010.66
2018-06-25T11:00:50.582Z,1010.69
2018-06-25T11:01:50.609Z,1010.69
2018-06-25T11:02:50.633Z,1010.66
2018-06-25T11:03:50.656Z,1010.67
2018-06-25T11:04:50.685Z,1010.68
2018-06-25T11:05:50.720Z,1010.70
2018-06-25T11:06:50.727Z,1010.73
2018-06-25T11:07:50.861Z,1010.76
2018-06-25T11:08:50.779Z,1010.69
2018-06-25T11:09:50.817Z,1010.73
2018-06-25T11:10:50.835Z,1010.71
2018-06-25T11:11:50.852Z,1010.73
2018-06-25T11:12:50.978Z,1010.71
2018-06-25T11:13:50.903Z,1010.71
2018-06-25T11:14:50.925Z,1010.69
2018-06-25T11:15:50.960Z,1010.68
2018-06-25T11:16:50.975Z,1010.68
2018-06-25T11:17:51.001Z,1010.63
2018-06-25T11:18:51.032Z,1010.64
2018-06-25T11:19:51.053Z,1010.64
2018-06-25T11:20:51.080Z,1010.66
2018-06-25T11:21:51.099Z,1010.65
2018-06-25T11:22:51.125Z,1010.64
2018-06-25T11:23:51.165Z,1010.61
2018-06-25T11:24:51.189Z,1010.60
2018-06-25T11:25:51.200Z,1010.64
2018-06-25T11:26:51.335Z,1010.65
2018-06-25T11:27:51.346Z,1010.57
2018-06-25T11:28:51.275Z,1010.55
2018-06-25T11:29:51.300Z,1010.54
2018-06-25T11:30:51.324Z,1010.52
2018-06-25T11:31:51.352Z,1010.60
2018-06-25T11:32:51.380Z,1010.65
2018-06-25T11:33:51.397Z,1010.63
2018-06-25T11:34:51.432Z,1010.63
2018-06-25T11:35:51.450Z,1010.61
2018-06-25T11:36:51.475Z,1010.63
2018-06-25T11:37:51.503Z,1010.63
2018-06-25T11:38:51.524Z,1010.65
2018-06-25T11:39:51.546Z,1010.64
2018-06-25T11:40:51.579Z,1010.57
2018-06-25T11:41:51.654Z,1010.54
2018-06-25T11:42:51.623Z,1010.54
2018-06-25T11:43:51.678Z,1010.57
2018-06-25T11:44:51.673Z,1010.50
2018-06-25T11:45:51.704Z,1010.54
2018-06-25T11:46:51.725Z,1010.54
2018-06-25T11:47:51.745Z,1010.59
2018-06-25T11:48:51.801Z,1010.56
2018-06-25T11:49:51.795Z,1010.56
2018-06-25T11:50:51.823Z,1010.55
2018-06-25T11:51:51.845Z,1010.52
2018-06-25T11:52:51.909Z,1010.57
2018-06-25T11:53:51.901Z,1010.55
2018-06-25T11:54:51.922Z,1010.59
2018-06-25T11:55:51.947Z,1010.58
2018-06-25T11:56:51.974Z,1010.56
2018-06-25T11:57:52.000Z,1010.57
2018-06-25T11:58:52.022Z,1010.59
2018-06-25T11:59:52.047Z,1010.56
2018-06-25T12:00:52.071Z,1010.52
2018-06-25T12:01:52.111Z,1010.54
2018-06-25T12:02:52.204Z,1010.49
2018-06-25T12:03:52.150Z,1010.50
2018-06-25T12:04:52.180Z,1010.48
2018-06-25T12:05:52.200Z,1010.48